Time;durP1;ratioP1;P1;durP2;ratioP2;P2;SDS_P1;SDS_P2;PMS_P1;PMS_P2;Temp;Humidity;BMP_temperature;BMP_pressure;BME280_temperature;BME280_humidity;BME280_pressure;Samples;Min_cycle;Max_cycle;Signal;HPM_P1;HPM_P2
2021/01/05 00:00:39;;;;;;;14.07;3.17;;;;;;;;;;5059856;28;20044;-65
2021/01/05 00:03:05;;;;;;;14.85;3.97;;;;;;;;;;5063704;28;20366;-65
2021/01/05 00:05:32;;;;;;;12.65;4.25;;;;;;;;;;5058040;28;20060;-65
2021/01/05 00:07:58;;;;;;;10.77;3.92;;;;;;;;;;5056954;28;20112;-66
2021/01/05 00:10:24;;;;;;;10.80;3.80;;;;;;;;;;5065361;28;20045;-65
2021/01/05 00:12:51;;;;;;;15.63;4.10;;;;;;;;;;5054352;28;20040;-65
2021/01/05 00:15:18;;;;;;;9.95;3.88;;;;;;;;;;5059690;28;20121;-65
2021/01/05 00:17:44;;;;;;;12.98;3.30;;;;;;;;;;5071271;28;20140;-65
2021/01/05 00:20:13;;;;;;;16.58;4.05;;;;;;;;;;5057251;28;20102;-65
2021/01/05 00:22:39;;;;;;;7.68;3.33;;;;;;;;;;5061842;28;20464;-65
2021/01/05 00:25:07;;;;;;;15.20;3.50;;;;;;;;;;5063232;28;20108;-65
2021/01/05 00:27:33;;;;;;;11.52;3.10;;;;;;;;;;5064423;28;20041;-65
2021/01/05 00:29:59;;;;;;;13.23;3.78;;;;;;;;;;5061834;28;20041;-65
2021/01/05 00:32:25;;;;;;;11.85;3.35;;;;;;;;;;5060530;28;20114;-65
2021/01/05 00:34:52;;;;;;;9.93;3.42;;;;;;;;;;5064941;28;20072;-65
2021/01/05 00:37:19;;;;;;;11.02;3.28;;;;;;;;;;5065543;28;20057;-65
2021/01/05 00:39:45;;;;;;;12.30;4.20;;;;;;;;;;5059168;28;20037;-65
2021/01/05 00:42:12;;;;;;;14.15;4.55;;;;;;;;;;5056154;28;20040;-65
2021/01/05 00:44:39;;;;;;;10.88;3.97;;;;;;;;;;5065225;28;20119;-65
2021/01/05 00:47:05;;;;;;;6.45;3.10;;;;;;;;;;5064122;28;20076;-65
2021/01/05 00:49:31;;;;;;;12.50;3.45;;;;;;;;;;5054577;28;20052;-65
2021/01/05 00:51:58;;;;;;;13.35;3.53;;;;;;;;;;5066604;28;20060;-65
2021/01/05 00:54:25;;;;;;;16.38;3.53;;;;;;;;;;5062339;28;20132;-65
2021/01/05 00:56:58;;;;;;;10.65;2.97;;;;;;;;;;5061919;28;20457;-65
2021/01/05 00:59:24;;;;;;;11.35;3.20;;;;;;;;;;5060972;28;20048;-65
2021/01/05 01:01:50;;;;;;;8.07;3.15;;;;;;;;;;5063112;28;20037;-65
2021/01/05 01:04:17;;;;;;;9.73;4.20;;;;;;;;;;5060963;28;20079;-65
2021/01/05 01:06:43;;;;;;;9.00;2.95;;;;;;;;;;5060995;28;20044;-65
2021/01/05 01:09:09;;;;;;;11.63;3.22;;;;;;;;;;5064419;28;20052;-66
2021/01/05 01:11:37;;;;;;;12.63;3.47;;;;;;;;;;5073497;28;20040;-65
2021/01/05 01:14:04;;;;;;;14.65;4.28;;;;;;;;;;5068712;28;20048;-65
2021/01/05 01:16:31;;;;;;;9.55;3.47;;;;;;;;;;5064677;28;20064;-65
2021/01/05 01:18:57;;;;;;;13.57;4.70;;;;;;;;;;5064644;28;20044;-65
2021/01/05 01:21:23;;;;;;;10.32;3.92;;;;;;;;;;5065507;28;20033;-65
2021/01/05 01:23:50;;;;;;;15.15;3.50;;;;;;;;;;5064053;28;20048;-65
2021/01/05 01:26:16;;;;;;;13.90;3.80;;;;;;;;;;5060676;28;20297;-65
2021/01/05 01:28:43;;;;;;;10.10;3.55;;;;;;;;;;5065102;28;20147;-65
2021/01/05 01:31:10;;;;;;;14.38;3.28;;;;;;;;;;5064564;28;20182;-65
2021/01/05 01:33:37;;;;;;;14.68;3.85;;;;;;;;;;5062590;28;20041;-65
2021/01/05 01:36:03;;;;;;;10.55;3.22;;;;;;;;;;5060727;28;20432;-65
2021/01/05 01:38:30;;;;;;;13.88;3.67;;;;;;;;;;5069350;28;20147;-65
2021/01/05 01:40:56;;;;;;;11.85;3.58;;;;;;;;;;5056076;28;20480;-65
2021/01/05 01:43:22;;;;;;;11.35;3.90;;;;;;;;;;5064055;28;20044;-65
2021/01/05 01:45:48;;;;;;;15.70;3.85;;;;;;;;;;5064616;28;20060;-65
2021/01/05 01:48:15;;;;;;;11.10;3.80;;;;;;;;;;5065248;28;20357;-65
2021/01/05 01:50:41;;;;;;;11.68;3.25;;;;;;;;;;5064528;28;20477;-65
2021/01/05 01:53:11;;;;;;;15.90;4.45;;;;;;;;;;5063298;28;20060;-65
2021/01/05 01:55:39;;;;;;;12.57;3.58;;;;;;;;;;5062899;28;20404;-65
2021/01/05 01:58:05;;;;;;;12.13;3.55;;;;;;;;;;5061507;28;20043;-65
2021/01/05 02:00:51;;;;;;;9.65;3.65;;;;;;;;;;5066036;28;20139;-65
2021/01/05 02:03:26;;;;;;;17.17;3.88;;;;;;;;;;5063473;28;21597;-65
2021/01/05 02:06:08;;;;;;;17.73;4.00;;;;;;;;;;5063458;28;20059;-65
2021/01/05 02:08:39;;;;;;;11.45;3.70;;;;;;;;;;5058833;28;20101;-65
2021/01/05 02:11:12;;;;;;;10.07;3.95;;;;;;;;;;5059915;28;20132;-65
2021/01/05 02:13:46;;;;;;;8.93;3.43;;;;;;;;;;5062191;28;20077;-65
2021/01/05 02:16:12;;;;;;;9.77;3.97;;;;;;;;;;5059274;28;20044;-65
2021/01/05 02:18:41;;;;;;;9.88;3.53;;;;;;;;;;5062699;28;20162;-65
2021/01/05 02:21:14;;;;;;;13.88;4.40;;;;;;;;;;5054168;28;20373;-65
2021/01/05 02:23:45;;;;;;;11.23;3.08;;;;;;;;;;5062595;28;20048;-65
2021/01/05 02:26:16;;;;;;;13.02;4.03;;;;;;;;;;5057320;28;20124;-66
2021/01/05 02:28:45;;;;;;;10.52;3.42;;;;;;;;;;5064728;28;20043;-65
2021/01/05 02:31:25;;;;;;;14.68;3.65;;;;;;;;;;5062134;28;20110;-65
2021/01/05 02:33:57;;;;;;;9.20;3.72;;;;;;;;;;5070967;28;20087;-65
2021/01/05 02:36:47;;;;;;;17.35;3.70;;;;;;;;;;5068894;28;20120;-65
2021/01/05 02:39:22;;;;;;;10.60;3.33;;;;;;;;;;5063543;28;20045;-65
2021/01/05 02:42:06;;;;;;;17.20;3.60;;;;;;;;;;5063969;28;20049;-64
2021/01/05 02:44:36;;;;;;;8.68;3.08;;;;;;;;;;5060339;28;20432;-65
2021/01/05 02:47:10;;;;;;;11.18;3.33;;;;;;;;;;5067920;28;20478;-65
2021/01/05 02:49:43;;;;;;;8.70;3.05;;;;;;;;;;5062745;28;20254;-65
2021/01/05 02:52:16;;;;;;;11.23;3.50;;;;;;;;;;5064043;28;20123;-65
2021/01/05 02:54:54;;;;;;;12.20;3.22;;;;;;;;;;5069948;28;20048;-65
2021/01/05 02:57:33;;;;;;;10.20;3.83;;;;;;;;;;5069583;28;20060;-65
2021/01/05 03:00:20;;;;;;;16.95;4.00;;;;;;;;;;5069356;28;20044;-65
2021/01/05 03:02:56;;;;;;;16.50;3.50;;;;;;;;;;5064629;28;20061;-65
2021/01/05 03:05:22;;;;;;;8.82;3.70;;;;;;;;;;5065463;28;20381;-65
2021/01/05 03:07:49;;;;;;;11.55;3.58;;;;;;;;;;5064102;28;20041;-65
2021/01/05 03:10:26;;;;;;;10.85;4.25;;;;;;;;;;5068511;28;20427;-65
2021/01/05 03:13:05;;;;;;;11.55;3.90;;;;;;;;;;5070393;28;20055;-65
2021/01/05 03:15:45;;;;;;;10.95;4.15;;;;;;;;;;5066273;28;20086;-65
2021/01/05 03:18:21;;;;;;;21.48;5.85;;;;;;;;;;5065102;28;20452;-65
2021/01/05 03:20:52;;;;;;;15.77;4.18;;;;;;;;;;5068765;28;20049;-65
2021/01/05 03:23:18;;;;;;;6.30;3.20;;;;;;;;;;5065381;28;20593;-65
2021/01/05 03:25:46;;;;;;;15.43;4.57;;;;;;;;;;5066623;28;20047;-65
2021/01/05 03:28:14;;;;;;;10.68;3.60;;;;;;;;;;5068308;28;21861;-65
2021/01/05 03:30:43;;;;;;;14.82;4.28;;;;;;;;;;5069290;28;20533;-65
2021/01/05 03:33:10;;;;;;;15.07;4.60;;;;;;;;;;5068246;28;20071;-65
2021/01/05 03:35:36;;;;;;;12.77;4.97;;;;;;;;;;5063304;28;20074;-65
2021/01/05 03:38:02;;;;;;;12.38;4.18;;;;;;;;;;5068969;28;20070;-65
2021/01/05 03:40:29;;;;;;;14.23;3.70;;;;;;;;;;5073420;28;20052;-65
2021/01/05 03:42:55;;;;;;;18.67;4.40;;;;;;;;;;5067181;28;20120;-65
2021/01/05 03:45:29;;;;;;;10.52;3.72;;;;;;;;;;5061977;28;20053;-65
2021/01/05 03:47:56;;;;;;;14.85;3.80;;;;;;;;;;5064780;28;20105;-65
2021/01/05 03:50:22;;;;;;;15.65;4.57;;;;;;;;;;5059065;28;20047;-65
2021/01/05 03:52:49;;;;;;;15.95;4.45;;;;;;;;;;5066629;28;20452;-65
2021/01/05 03:55:16;;;;;;;12.25;3.97;;;;;;;;;;5063173;28;20072;-65
2021/01/05 03:57:42;;;;;;;13.68;5.15;;;;;;;;;;5063652;28;20471;-65
2021/01/05 04:00:10;;;;;;;11.07;4.20;;;;;;;;;;5070741;28;20132;-65
2021/01/05 04:02:37;;;;;;;13.45;3.80;;;;;;;;;;5061105;28;20052;-65
2021/01/05 04:05:03;;;;;;;11.48;3.30;;;;;;;;;;5060793;28;20079;-66
2021/01/05 04:07:29;;;;;;;13.88;4.78;;;;;;;;;;5066129;28;20040;-65
2021/01/05 04:09:56;;;;;;;13.02;4.10;;;;;;;;;;5055403;28;20076;-65
2021/01/05 04:12:22;;;;;;;12.77;4.05;;;;;;;;;;5060178;28;20399;-65
2021/01/05 04:14:48;;;;;;;15.30;3.35;;;;;;;;;;5066281;28;20093;-65
2021/01/05 04:17:14;;;;;;;10.82;4.63;;;;;;;;;;5086853;28;20044;-65
2021/01/05 04:19:41;;;;;;;13.43;3.72;;;;;;;;;;5059404;28;20044;-65
2021/01/05 04:22:07;;;;;;;16.73;4.03;;;;;;;;;;5059061;28;20045;-65
2021/01/05 04:24:33;;;;;;;15.60;3.83;;;;;;;;;;5061005;28;20492;-65
2021/01/05 04:27:00;;;;;;;9.82;3.45;;;;;;;;;;5064188;28;20041;-65
2021/01/05 04:29:26;;;;;;;9.82;3.80;;;;;;;;;;5080064;28;20147;-65
2021/01/05 04:31:53;;;;;;;12.10;3.65;;;;;;;;;;5057280;28;20044;-65
2021/01/05 04:34:19;;;;;;;17.40;5.30;;;;;;;;;;5065392;28;20040;-65
2021/01/05 04:36:45;;;;;;;11.90;3.60;;;;;;;;;;5069148;28;20116;-65
2021/01/05 04:39:12;;;;;;;14.95;4.07;;;;;;;;;;5056096;28;20116;-65
2021/01/05 04:41:43;;;;;;;10.73;4.20;;;;;;;;;;5064132;28;20484;-65
2021/01/05 04:44:12;;;;;;;14.18;4.63;;;;;;;;;;5074154;28;20493;-64
2021/01/05 04:46:51;;;;;;;11.50;3.95;;;;;;;;;;5064457;28;20068;-65
2021/01/05 04:49:23;;;;;;;15.48;4.82;;;;;;;;;;5071785;28;20072;-65
2021/01/05 04:52:01;;;;;;;26.58;6.25;;;;;;;;;;5065692;28;20040;-65
2021/01/05 04:54:39;;;;;;;9.02;3.72;;;;;;;;;;5063040;28;20068;-65
2021/01/05 04:57:05;;;;;;;10.23;4.22;;;;;;;;;;5071590;28;20157;-65
2021/01/05 04:59:35;;;;;;;15.85;4.22;;;;;;;;;;5060939;28;20037;-65
2021/01/05 05:02:02;;;;;;;15.25;4.93;;;;;;;;;;5058489;28;20401;-65
2021/01/05 05:04:34;;;;;;;10.50;4.63;;;;;;;;;;5060365;28;20049;-65
2021/01/05 05:07:11;;;;;;;12.38;4.00;;;;;;;;;;5060894;28;20072;-65
2021/01/05 05:09:38;;;;;;;11.27;3.55;;;;;;;;;;5060209;28;20062;-65
2021/01/05 05:12:24;;;;;;;11.65;4.85;;;;;;;;;;5060829;28;20395;-65
2021/01/05 05:15:02;;;;;;;15.45;4.43;;;;;;;;;;5061840;28;20045;-65
2021/01/05 05:17:31;;;;;;;19.33;4.80;;;;;;;;;;5051500;28;20124;-65
2021/01/05 05:20:06;;;;;;;11.57;3.88;;;;;;;;;;5063425;28;20044;-65
2021/01/05 05:22:42;;;;;;;10.35;3.70;;;;;;;;;;5061308;28;20040;-65
2021/01/05 05:25:16;;;;;;;15.48;5.07;;;;;;;;;;5061437;28;20047;-65
2021/01/05 05:27:47;;;;;;;13.55;4.97;;;;;;;;;;5063232;28;20055;-65
2021/01/05 05:30:18;;;;;;;13.40;4.05;;;;;;;;;;5064210;28;20147;-65
2021/01/05 05:32:47;;;;;;;13.65;4.07;;;;;;;;;;5062300;28;20037;-64
2021/01/05 05:35:14;;;;;;;15.75;4.20;;;;;;;;;;5064140;28;20036;-65
2021/01/05 05:37:45;;;;;;;15.00;4.78;;;;;;;;;;5068783;28;20115;-65
2021/01/05 05:40:20;;;;;;;17.98;3.92;;;;;;;;;;5067619;28;20033;-65
2021/01/05 05:42:49;;;;;;;12.52;4.05;;;;;;;;;;5062741;28;20123;-65
2021/01/05 05:45:21;;;;;;;11.82;3.63;;;;;;;;;;5069058;28;20071;-65
2021/01/05 05:47:51;;;;;;;10.90;3.85;;;;;;;;;;5062171;28;20411;-65
2021/01/05 05:50:36;;;;;;;13.32;3.42;;;;;;;;;;5067337;28;20484;-65
2021/01/05 05:53:06;;;;;;;9.63;4.05;;;;;;;;;;5067149;28;20472;-65
2021/01/05 05:55:45;;;;;;;12.85;4.13;;;;;;;;;;5082221;28;20037;-65
2021/01/05 05:58:14;;;;;;;9.30;3.83;;;;;;;;;;5067120;28;20089;-65
2021/01/05 06:00:44;;;;;;;13.75;4.18;;;;;;;;;;5070919;28;20122;-65
2021/01/05 06:03:12;;;;;;;14.43;3.90;;;;;;;;;;5063622;28;20044;-65
2021/01/05 06:05:39;;;;;;;10.38;3.53;;;;;;;;;;5066876;28;20044;-65
2021/01/05 06:08:07;;;;;;;11.25;4.22;;;;;;;;;;5063683;28;20049;-65
2021/01/05 06:10:34;;;;;;;9.10;3.97;;;;;;;;;;5064366;28;20126;-65
2021/01/05 06:13:01;;;;;;;11.55;4.15;;;;;;;;;;5057767;28;20048;-65
2021/01/05 06:15:27;;;;;;;17.00;3.97;;;;;;;;;;5062857;28;20048;-64
2021/01/05 06:17:53;;;;;;;15.73;4.25;;;;;;;;;;5070436;28;20480;-65
2021/01/05 06:20:20;;;;;;;14.55;4.55;;;;;;;;;;5071507;28;20037;-65
2021/01/05 06:22:46;;;;;;;8.85;3.88;;;;;;;;;;5075266;28;20111;-65
2021/01/05 06:25:13;;;;;;;16.17;4.63;;;;;;;;;;5070686;28;20067;-65
2021/01/05 06:27:39;;;;;;;11.45;4.32;;;;;;;;;;5070658;28;20074;-65
2021/01/05 06:30:07;;;;;;;7.28;4.00;;;;;;;;;;5071489;28;20044;-64
2021/01/05 06:32:34;;;;;;;13.95;4.45;;;;;;;;;;5060033;28;20058;-65
2021/01/05 06:35:01;;;;;;;13.95;4.10;;;;;;;;;;5063147;28;20075;-65
2021/01/05 06:37:27;;;;;;;12.10;4.30;;;;;;;;;;5065463;28;20045;-65
2021/01/05 06:39:53;;;;;;;14.65;4.82;;;;;;;;;;5068759;28;20350;-64
2021/01/05 06:42:19;;;;;;;14.60;4.50;;;;;;;;;;5062466;28;20037;-64
2021/01/05 06:44:46;;;;;;;10.38;4.18;;;;;;;;;;5060191;28;20464;-65
2021/01/05 06:47:12;;;;;;;17.85;4.97;;;;;;;;;;5053533;28;20534;-65
2021/01/05 06:49:38;;;;;;;16.48;4.68;;;;;;;;;;5066929;28;20052;-65
2021/01/05 06:52:05;;;;;;;9.88;4.63;;;;;;;;;;5061731;28;20480;-64
2021/01/05 06:54:32;;;;;;;17.25;5.28;;;;;;;;;;5069194;28;20091;-64
2021/01/05 06:56:59;;;;;;;12.88;5.57;;;;;;;;;;5059556;28;20384;-65
2021/01/05 06:59:25;;;;;;;12.93;4.22;;;;;;;;;;5060955;28;20068;-64
2021/01/05 07:01:52;;;;;;;17.65;4.57;;;;;;;;;;5056482;28;20056;-65
2021/01/05 07:04:19;;;;;;;16.08;4.50;;;;;;;;;;5056719;28;20072;-65
2021/01/05 07:06:45;;;;;;;19.33;4.90;;;;;;;;;;5054799;28;20032;-65
2021/01/05 07:09:12;;;;;;;19.80;6.10;;;;;;;;;;5063480;28;20113;-64
2021/01/05 07:11:38;;;;;;;10.95;4.30;;;;;;;;;;5069307;28;20052;-65
2021/01/05 07:14:05;;;;;;;12.40;4.03;;;;;;;;;;5068611;28;20072;-65
2021/01/05 07:16:31;;;;;;;12.70;4.50;;;;;;;;;;5071797;28;20083;-64
2021/01/05 07:18:57;;;;;;;8.38;4.13;;;;;;;;;;5073874;28;20053;-64
2021/01/05 07:21:24;;;;;;;10.65;4.03;;;;;;;;;;5072661;28;20090;-64
2021/01/05 07:23:50;;;;;;;10.30;4.63;;;;;;;;;;5070184;28;20139;-65
2021/01/05 07:26:17;;;;;;;17.55;4.57;;;;;;;;;;5072501;28;20049;-64
2021/01/05 07:28:43;;;;;;;13.55;4.38;;;;;;;;;;5070429;28;20048;-64
2021/01/05 07:31:10;;;;;;;9.48;4.05;;;;;;;;;;5069955;28;20495;-64
2021/01/05 07:33:37;;;;;;;10.82;3.95;;;;;;;;;;5075937;28;20067;-64
2021/01/05 07:36:07;;;;;;;10.73;3.95;;;;;;;;;;5070142;28;21446;-64
2021/01/05 07:38:34;;;;;;;8.98;4.10;;;;;;;;;;5072079;28;20032;-65
2021/01/05 07:41:00;;;;;;;12.60;5.03;;;;;;;;;;5065281;28;20040;-64
2021/01/05 07:43:27;;;;;;;12.82;4.18;;;;;;;;;;5071136;28;20106;-64
2021/01/05 07:45:53;;;;;;;10.82;3.92;;;;;;;;;;5069494;28;20040;-64
2021/01/05 07:48:19;;;;;;;11.10;3.25;;;;;;;;;;5072186;28;20055;-64
2021/01/05 07:50:45;;;;;;;11.15;3.60;;;;;;;;;;5067058;28;20396;-63
2021/01/05 07:53:12;;;;;;;11.38;3.08;;;;;;;;;;5073635;28;20041;-64
2021/01/05 07:55:39;;;;;;;12.70;4.03;;;;;;;;;;5071832;28;20444;-65
2021/01/05 07:58:05;;;;;;;13.43;4.60;;;;;;;;;;5071296;28;20460;-64
2021/01/05 08:00:32;;;;;;;15.32;4.20;;;;;;;;;;5077678;28;20479;-64
2021/01/05 08:02:58;;;;;;;9.93;3.25;;;;;;;;;;5070375;28;20098;-63
2021/01/05 08:05:27;;;;;;;12.05;3.45;;;;;;;;;;5072586;28;20184;-72
2021/01/05 08:07:53;;;;;;;14.57;6.32;;;;;;;;;;5074818;28;20060;-72
2021/01/05 08:10:23;;;;;;;20.60;3.92;;;;;;;;;;5072137;28;20045;-72
2021/01/05 08:12:49;;;;;;;12.27;3.60;;;;;;;;;;5072095;28;20044;-72
2021/01/05 08:15:17;;;;;;;7.47;2.88;;;;;;;;;;5079430;28;20134;-72
2021/01/05 08:17:43;;;;;;;9.45;2.95;;;;;;;;;;5088372;28;20050;-71
2021/01/05 08:20:10;;;;;;;9.43;3.15;;;;;;;;;;5072581;28;20044;-68
2021/01/05 08:22:36;;;;;;;13.77;3.13;;;;;;;;;;5070783;28;20492;-76
2021/01/05 08:25:03;;;;;;;12.57;3.42;;;;;;;;;;5069967;28;20064;-74
2021/01/05 08:27:29;;;;;;;13.93;3.65;;;;;;;;;;5063330;28;20044;-74
2021/01/05 08:29:56;;;;;;;9.77;3.63;;;;;;;;;;5070252;28;20052;-75
2021/01/05 08:32:23;;;;;;;11.15;2.97;;;;;;;;;;5073238;28;20048;-74
2021/01/05 08:34:50;;;;;;;10.63;3.45;;;;;;;;;;5069485;28;20557;-76
2021/01/05 08:37:17;;;;;;;8.05;3.33;;;;;;;;;;5066564;28;20059;-74
2021/01/05 08:39:43;;;;;;;8.85;3.20;;;;;;;;;;5068931;28;20051;-73
2021/01/05 08:42:10;;;;;;;10.73;3.30;;;;;;;;;;5069188;28;20504;-72
2021/01/05 08:44:36;;;;;;;7.47;3.00;;;;;;;;;;5064768;28;20098;-72
2021/01/05 08:47:04;;;;;;;8.27;3.47;;;;;;;;;;5063392;28;20060;-72
2021/01/05 08:49:31;;;;;;;7.57;3.00;;;;;;;;;;5102431;27;20484;-71
2021/01/05 08:51:58;;;;;;;8.10;2.95;;;;;;;;;;5061836;28;20461;-68
2021/01/05 08:54:25;;;;;;;7.97;3.30;;;;;;;;;;5066771;28;20404;-67
2021/01/05 08:56:53;;;;;;;8.50;2.67;;;;;;;;;;5064534;28;20405;-67
2021/01/05 08:59:20;;;;;;;15.40;3.38;;;;;;;;;;5064464;28;20049;-67
2021/01/05 09:01:46;;;;;;;8.23;3.25;;;;;;;;;;5070780;28;20077;-67
2021/01/05 09:04:12;;;;;;;11.68;3.50;;;;;;;;;;5075046;28;20040;-68
2021/01/05 09:06:39;;;;;;;8.82;2.95;;;;;;;;;;5068077;28;20040;-68
2021/01/05 09:09:05;;;;;;;13.23;3.30;;;;;;;;;;5067045;28;20049;-68
2021/01/05 09:11:31;;;;;;;7.35;3.33;;;;;;;;;;5073061;28;20076;-68
2021/01/05 09:13:58;;;;;;;14.43;4.28;;;;;;;;;;5085126;28;20474;-67
2021/01/05 09:16:25;;;;;;;7.28;3.10;;;;;;;;;;5071155;28;20079;-68
2021/01/05 09:18:52;;;;;;;10.85;3.42;;;;;;;;;;5085270;28;20061;-68
2021/01/05 09:21:22;;;;;;;6.25;2.35;;;;;;;;;;5068269;28;20477;-68
2021/01/05 09:23:49;;;;;;;9.00;2.63;;;;;;;;;;5067181;28;20474;-68
2021/01/05 09:26:18;;;;;;;7.95;2.85;;;;;;;;;;5067485;28;20056;-68
2021/01/05 09:28:44;;;;;;;6.65;2.53;;;;;;;;;;5069731;28;20044;-68
2021/01/05 09:31:10;;;;;;;8.15;2.80;;;;;;;;;;5068230;28;20040;-68
2021/01/05 09:33:37;;;;;;;5.68;2.50;;;;;;;;;;5072674;28;20119;-68
2021/01/05 09:36:04;;;;;;;8.77;2.88;;;;;;;;;;5071797;28;21914;-67
2021/01/05 09:38:30;;;;;;;7.93;3.78;;;;;;;;;;5065946;28;20048;-68
2021/01/05 09:40:57;;;;;;;10.55;2.50;;;;;;;;;;5064165;28;20052;-68
2021/01/05 09:43:23;;;;;;;6.85;2.40;;;;;;;;;;5068382;28;20040;-68
2021/01/05 09:45:49;;;;;;;9.75;2.80;;;;;;;;;;5069313;28;20044;-69
2021/01/05 09:48:16;;;;;;;8.52;2.95;;;;;;;;;;5069852;28;20048;-69
2021/01/05 09:50:44;;;;;;;9.13;2.70;;;;;;;;;;5066737;28;20048;-68
2021/01/05 09:53:11;;;;;;;9.88;3.20;;;;;;;;;;5068514;28;20119;-68
2021/01/05 09:55:37;;;;;;;7.60;2.97;;;;;;;;;;5064458;28;20071;-69
2021/01/05 09:58:04;;;;;;;7.10;2.78;;;;;;;;;;5071412;28;20036;-68
2021/01/05 10:00:31;;;;;;;8.77;3.25;;;;;;;;;;5083208;28;20056;-68
2021/01/05 10:02:58;;;;;;;8.70;2.88;;;;;;;;;;5076726;28;20043;-68
2021/01/05 10:05:25;;;;;;;13.98;2.83;;;;;;;;;;5070996;28;20388;-68
2021/01/05 10:07:52;;;;;;;12.30;3.05;;;;;;;;;;5069318;28;20073;-68
2021/01/05 10:10:20;;;;;;;8.48;2.85;;;;;;;;;;5073248;28;20102;-68
2021/01/05 10:12:47;;;;;;;10.40;3.10;;;;;;;;;;5070408;28;20043;-68
2021/01/05 10:15:14;;;;;;;10.30;3.10;;;;;;;;;;5068878;28;20094;-68
2021/01/05 10:17:42;;;;;;;10.77;3.15;;;;;;;;;;5068539;28;20041;-68
2021/01/05 10:20:09;;;;;;;11.13;3.25;;;;;;;;;;5069129;28;20036;-68
2021/01/05 10:22:36;;;;;;;8.23;2.85;;;;;;;;;;5071419;28;20407;-68
2021/01/05 10:25:02;;;;;;;8.55;3.75;;;;;;;;;;5079829;28;20029;-67
2021/01/05 10:27:28;;;;;;;9.43;3.28;;;;;;;;;;5066480;28;20048;-69
2021/01/05 10:29:55;;;;;;;6.82;3.20;;;;;;;;;;5071641;28;20050;-69
2021/01/05 10:32:22;;;;;;;11.45;3.72;;;;;;;;;;5070805;28;20414;-70
2021/01/05 10:34:49;;;;;;;8.00;3.65;;;;;;;;;;5077346;28;20102;-69
2021/01/05 10:37:16;;;;;;;10.70;3.75;;;;;;;;;;5084601;28;20051;-68
2021/01/05 10:39:42;;;;;;;13.27;4.18;;;;;;;;;;5072124;28;20036;-68
2021/01/05 10:42:09;;;;;;;13.23;4.05;;;;;;;;;;5070032;28;20047;-69
2021/01/05 10:44:35;;;;;;;14.13;3.60;;;;;;;;;;5069106;28;20040;-68
2021/01/05 10:47:04;;;;;;;12.90;4.20;;;;;;;;;;5070302;28;20477;-68
2021/01/05 10:49:30;;;;;;;13.25;4.25;;;;;;;;;;5074418;28;20059;-72
2021/01/05 10:51:58;;;;;;;10.68;3.80;;;;;;;;;;5072565;28;20557;-76
2021/01/05 10:54:28;;;;;;;13.32;4.00;;;;;;;;;;5075791;28;20040;-68
2021/01/05 10:56:57;;;;;;;9.32;3.47;;;;;;;;;;5084696;28;20040;-69
2021/01/05 10:59:24;;;;;;;8.57;3.58;;;;;;;;;;5077489;28;20048;-68
2021/01/05 11:01:51;;;;;;;13.00;3.92;;;;;;;;;;5081006;28;20134;-66
2021/01/05 11:04:17;;;;;;;13.20;3.88;;;;;;;;;;5071224;28;20048;-66
2021/01/05 11:06:52;;;;;;;10.68;3.60;;;;;;;;;;5079657;28;20037;-65
2021/01/05 11:09:20;;;;;;;12.10;3.63;;;;;;;;;;5074384;28;20063;-66
2021/01/05 11:11:48;;;;;;;14.90;4.13;;;;;;;;;;5070401;28;20140;-65
2021/01/05 11:14:15;;;;;;;12.13;4.20;;;;;;;;;;5073701;28;20044;-65
2021/01/05 11:16:48;;;;;;;15.15;4.28;;;;;;;;;;5070737;28;20445;-66
2021/01/05 11:19:14;;;;;;;13.85;4.65;;;;;;;;;;5074107;28;20044;-66
2021/01/05 11:21:41;;;;;;;9.95;4.38;;;;;;;;;;5074198;28;20101;-66
2021/01/05 11:24:07;;;;;;;16.40;4.90;;;;;;;;;;5093168;28;20425;-66
2021/01/05 11:26:36;;;;;;;14.15;5.07;;;;;;;;;;5071797;28;20376;-66
2021/01/05 11:29:03;;;;;;;13.93;4.68;;;;;;;;;;5072138;28;20049;-66
2021/01/05 11:31:29;;;;;;;11.13;4.32;;;;;;;;;;5081340;28;20043;-65
2021/01/05 11:33:55;;;;;;;10.75;4.80;;;;;;;;;;5068580;28;20192;-66
2021/01/05 11:36:23;;;;;;;13.38;4.75;;;;;;;;;;5073942;28;20036;-66
2021/01/05 11:38:50;;;;;;;12.48;5.35;;;;;;;;;;5078624;28;21114;-66
2021/01/05 11:41:30;;;;;;;11.35;4.20;;;;;;;;;;5073811;28;20090;-66
2021/01/05 11:43:57;;;;;;;10.45;4.72;;;;;;;;;;5076922;28;20044;-66
2021/01/05 11:46:24;;;;;;;14.02;4.90;;;;;;;;;;5076684;28;20044;-66
2021/01/05 11:48:50;;;;;;;15.07;4.93;;;;;;;;;;5078679;28;20040;-66
2021/01/05 11:51:22;;;;;;;10.38;4.95;;;;;;;;;;5074325;28;20122;-67
2021/01/05 11:53:48;;;;;;;9.60;4.20;;;;;;;;;;5072654;28;20037;-67
2021/01/05 11:56:18;;;;;;;11.27;4.80;;;;;;;;;;5075695;28;20048;-66
2021/01/05 11:58:45;;;;;;;8.15;4.50;;;;;;;;;;5071317;28;20049;-66
2021/01/05 12:01:11;;;;;;;8.13;4.78;;;;;;;;;;5073698;28;20041;-66
2021/01/05 12:03:37;;;;;;;11.63;4.38;;;;;;;;;;5073421;28;20036;-66
2021/01/05 12:06:04;;;;;;;11.77;4.32;;;;;;;;;;5073042;28;20094;-67
2021/01/05 12:08:30;;;;;;;16.92;5.82;;;;;;;;;;5072387;28;20049;-74
2021/01/05 12:10:57;;;;;;;8.38;3.92;;;;;;;;;;5077180;28;20483;-76
2021/01/05 12:13:23;;;;;;;8.18;3.40;;;;;;;;;;5077869;28;20036;-77
2021/01/05 12:15:49;;;;;;;15.32;6.18;;;;;;;;;;5070035;28;20075;-77
2021/01/05 12:18:16;;;;;;;14.55;4.18;;;;;;;;;;5073501;28;20095;-77
2021/01/05 12:20:42;;;;;;;12.77;4.32;;;;;;;;;;5070517;28;20098;-77
2021/01/05 12:23:08;;;;;;;12.52;3.83;;;;;;;;;;5070800;28;20131;-77
2021/01/05 12:25:35;;;;;;;17.92;4.20;;;;;;;;;;5070820;28;20084;-77
2021/01/05 12:28:01;;;;;;;14.18;3.92;;;;;;;;;;5071189;28;20441;-77
2021/01/05 12:30:27;;;;;;;16.50;4.35;;;;;;;;;;5080123;28;20135;-77
2021/01/05 12:32:54;;;;;;;9.27;4.18;;;;;;;;;;5078821;28;20115;-77
2021/01/05 12:35:21;;;;;;;9.98;3.38;;;;;;;;;;5071473;28;20052;-77
2021/01/05 12:37:47;;;;;;;11.75;4.30;;;;;;;;;;5075727;28;20449;-78
2021/01/05 12:40:14;;;;;;;10.40;3.78;;;;;;;;;;5072960;28;20060;-77
2021/01/05 12:42:41;;;;;;;10.35;3.70;;;;;;;;;;5071515;28;20090;-77
2021/01/05 12:45:08;;;;;;;9.65;4.55;;;;;;;;;;5073955;28;20090;-77
2021/01/05 12:47:35;;;;;;;12.52;3.97;;;;;;;;;;5067906;28;20402;-77
2021/01/05 12:50:01;;;;;;;9.95;4.10;;;;;;;;;;5069657;28;20089;-78
2021/01/05 12:52:27;;;;;;;11.15;4.15;;;;;;;;;;5071758;28;20049;-77
2021/01/05 12:54:54;;;;;;;7.75;3.65;;;;;;;;;;5066769;28;20068;-78
2021/01/05 12:57:20;;;;;;;9.38;3.50;;;;;;;;;;5066269;28;20389;-79
2021/01/05 12:59:47;;;;;;;10.75;3.78;;;;;;;;;;5071122;28;20048;-77
2021/01/05 13:02:18;;;;;;;9.93;3.80;;;;;;;;;;5073467;28;20510;-78
2021/01/05 13:04:45;;;;;;;9.10;3.70;;;;;;;;;;5068465;28;20048;-77
2021/01/05 13:07:12;;;;;;;12.75;3.85;;;;;;;;;;5071935;28;20616;-78
2021/01/05 13:09:38;;;;;;;10.13;3.67;;;;;;;;;;5071737;28;20127;-77
2021/01/05 13:12:05;;;;;;;7.25;3.75;;;;;;;;;;5069579;28;20134;-77
2021/01/05 13:14:32;;;;;;;9.82;4.00;;;;;;;;;;5076814;28;20036;-78
2021/01/05 13:16:59;;;;;;;7.47;3.90;;;;;;;;;;5070679;28;20106;-78
2021/01/05 13:19:25;;;;;;;7.57;3.78;;;;;;;;;;5074358;28;20048;-78
2021/01/05 13:21:52;;;;;;;13.50;4.10;;;;;;;;;;5079438;28;20052;-78
2021/01/05 13:24:20;;;;;;;6.82;3.70;;;;;;;;;;5074100;28;20439;-78
2021/01/05 13:26:47;;;;;;;11.38;4.07;;;;;;;;;;5069348;28;20104;-77
2021/01/05 13:29:17;;;;;;;9.48;3.63;;;;;;;;;;5072981;28;20059;-78
2021/01/05 13:31:54;;;;;;;9.05;3.80;;;;;;;;;;5068843;28;20977;-77
2021/01/05 13:34:23;;;;;;;11.65;4.03;;;;;;;;;;5074347;28;20395;-77
2021/01/05 13:36:50;;;;;;;10.38;3.80;;;;;;;;;;5073690;28;20100;-77
2021/01/05 13:39:17;;;;;;;13.52;3.92;;;;;;;;;;5070133;28;20123;-77
2021/01/05 13:41:45;;;;;;;8.77;3.67;;;;;;;;;;5074537;28;20052;-77
2021/01/05 13:44:11;;;;;;;10.10;3.83;;;;;;;;;;5074667;28;20043;-76
2021/01/05 13:46:39;;;;;;;12.52;4.05;;;;;;;;;;5074635;28;20055;-77
2021/01/05 13:49:07;;;;;;;11.45;3.95;;;;;;;;;;5065353;28;20061;-72
2021/01/05 13:51:40;;;;;;;10.88;3.25;;;;;;;;;;5083172;28;20405;-72
2021/01/05 13:54:07;;;;;;;7.07;3.33;;;;;;;;;;5070250;28;20044;-72
2021/01/05 13:56:34;;;;;;;8.80;3.67;;;;;;;;;;5070833;28;20481;-72
2021/01/05 13:59:01;;;;;;;7.60;3.35;;;;;;;;;;5071138;28;20041;-72
2021/01/05 14:01:27;;;;;;;7.13;3.10;;;;;;;;;;5069953;28;20044;-72
2021/01/05 14:03:55;;;;;;;8.60;3.05;;;;;;;;;;5071155;28;20044;-78
2021/01/05 14:06:24;;;;;;;6.15;2.70;;;;;;;;;;5069983;28;20036;-72
2021/01/05 14:08:51;;;;;;;8.07;2.47;;;;;;;;;;5070296;28;20136;-72
2021/01/05 14:11:18;;;;;;;7.55;2.75;;;;;;;;;;5070359;28;20045;-74
2021/01/05 14:13:45;;;;;;;9.18;3.00;;;;;;;;;;5081672;28;20036;-75
2021/01/05 14:16:15;;;;;;;9.32;3.08;;;;;;;;;;5079821;28;20487;-78
2021/01/05 14:18:44;;;;;;;8.13;4.05;;;;;;;;;;5069008;28;20075;-75
2021/01/05 14:21:12;;;;;;;8.80;3.15;;;;;;;;;;5054001;28;20040;-75
2021/01/05 14:23:39;;;;;;;10.60;3.03;;;;;;;;;;5058333;28;20041;-76
2021/01/05 14:26:05;;;;;;;9.00;3.25;;;;;;;;;;5057447;28;20024;-75
2021/01/05 14:28:32;;;;;;;11.63;3.75;;;;;;;;;;5060891;28;20424;-75
2021/01/05 14:30:59;;;;;;;9.93;3.72;;;;;;;;;;5068606;28;20157;-75
2021/01/05 14:33:25;;;;;;;13.27;4.40;;;;;;;;;;5051352;28;20492;-75
2021/01/05 14:35:52;;;;;;;7.45;3.55;;;;;;;;;;5069163;28;20392;-75
2021/01/05 14:38:18;;;;;;;17.38;4.07;;;;;;;;;;5068275;28;20037;-75